Time;durP1;ratioP1;P1;durP2;ratioP2;P2;SDS_P1;SDS_P2;PMS_P1;PMS_P2;Temp;Humidity;BMP_temperature;BMP_pressure;BME280_temperature;BME280_humidity;BME280_pressure;Samples;Min_cycle;Max_cycle;Signal;HPM_P1;HPM_P2
2021/10/22 00:03:34;;;;;;;4.60;1.00;;;;;;;7.93;89.25;99515.64;5057738;57;1132112;-78
2021/10/22 00:08:40;;;;;;;8.80;1.17;;;;;;;7.86;90.36;99527.14;4964779;59;1132960;-77
2021/10/22 00:13:46;;;;;;;4.97;1.20;;;;;;;7.74;90.21;99544.78;5057641;57;1132757;-78
2021/10/22 00:18:53;;;;;;;2.35;0.75;;;;;;;7.69;89.70;99546.09;4964630;59;1132777;-77
2021/10/22 00:23:59;;;;;;;7.13;1.23;;;;;;;7.67;88.86;99567.27;5057722;58;1133173;-76
2021/10/22 00:29:08;;;;;;;10.20;0.70;;;;;;;7.67;88.43;99570.38;4964566;59;1130777;-78
2021/10/22 00:34:14;;;;;;;9.05;1.12;;;;;;;7.68;88.17;99575.53;5057765;58;1132818;-77
2021/10/22 00:39:20;;;;;;;7.77;1.23;;;;;;;7.68;87.72;99587.37;4964892;59;1135204;-77
2021/10/22 00:44:25;;;;;;;6.75;1.80;;;;;;;7.66;87.46;99595.02;5057858;58;1134669;-77
2021/10/22 00:49:31;;;;;;;4.83;1.00;;;;;;;7.61;87.58;99599.84;4964572;59;1134873;-76
2021/10/22 00:54:37;;;;;;;7.07;1.20;;;;;;;7.56;87.20;99623.05;5097608;58;1134945;-76
2021/10/22 00:59:44;;;;;;;8.43;0.90;;;;;;;7.53;86.72;99616.23;5110171;58;1134981;-78
2021/10/22 01:04:51;;;;;;;11.60;1.27;;;;;;;7.48;87.24;99631.56;5109886;58;1134932;-76
2021/10/22 01:09:57;;;;;;;5.47;0.90;;;;;;;7.45;86.53;99629.16;5109994;58;1136992;-76
2021/10/22 01:15:05;;;;;;;14.37;3.77;;;;;;;7.41;86.81;99637.77;5110503;58;1135208;-78
2021/10/22 01:20:18;;;;;;;7.40;2.00;;;;;;;7.39;86.61;99644.94;5110370;58;1137326;-78
2021/10/22 01:25:27;;;;;;;7.05;1.20;;;;;;;7.34;86.49;99628.67;5110388;57;1134838;-76
2021/10/22 01:30:34;;;;;;;2.80;1.40;;;;;;;7.35;86.46;99647.92;5119490;57;1134880;-77
2021/10/22 01:35:40;;;;;;;9.93;2.07;;;;;;;7.28;86.02;99650.69;5154882;57;1134888;-77
2021/10/22 01:40:46;;;;;;;3.03;1.10;;;;;;;7.23;86.11;99667.29;5154963;57;1135164;-78
2021/10/22 01:45:53;;;;;;;5.67;1.30;;;;;;;7.19;85.90;99673.26;5155036;57;1134811;-77
2021/10/22 01:50:59;;;;;;;7.20;1.10;;;;;;;7.14;85.78;99678.53;5152069;57;1134760;-76
2021/10/22 01:56:05;;;;;;;13.37;1.73;;;;;;;7.16;85.54;99685.83;5079835;57;1134772;-78
2021/10/22 02:01:12;;;;;;;8.93;1.37;;;;;;;7.18;85.32;99670.77;4995240;58;1136968;-75
2021/10/22 02:06:18;;;;;;;4.07;1.30;;;;;;;7.15;85.17;99678.89;5067190;57;1135045;-77
2021/10/22 02:11:26;;;;;;;9.23;1.70;;;;;;;7.09;84.82;99681.50;5067153;57;1133041;-77
2021/10/22 02:16:31;;;;;;;2.80;0.83;;;;;;;7.04;84.44;99692.84;4985585;58;1135034;-76
2021/10/22 02:21:38;;;;;;;7.60;1.73;;;;;;;6.98;84.29;99683.65;5068032;57;1133335;-77
2021/10/22 02:26:44;;;;;;;5.37;0.82;;;;;;;6.97;84.17;99694.27;4985747;58;1135219;-76
2021/10/22 02:31:50;;;;;;;12.03;1.57;;;;;;;6.95;84.40;99702.27;5059329;58;1134807;-76
2021/10/22 02:36:57;;;;;;;7.60;1.20;;;;;;;6.93;84.59;99705.48;4955774;59;1137032;-77
2021/10/22 02:42:03;;;;;;;7.03;1.50;;;;;;;6.87;84.91;99707.28;5047566;57;1134871;-78
2021/10/22 02:47:09;;;;;;;5.70;1.33;;;;;;;6.86;85.08;99712.66;4955895;59;1134943;-75
2021/10/22 02:52:15;;;;;;;4.47;1.23;;;;;;;6.84;85.34;99719.81;5062658;57;1135182;-76
2021/10/22 02:57:20;;;;;;;4.53;0.98;;;;;;;6.78;85.64;99720.26;5100108;57;1133134;-78
2021/10/22 03:02:26;;;;;;;4.63;0.83;;;;;;;6.78;85.77;99723.72;5126646;57;1134910;-77
2021/10/22 03:07:32;;;;;;;10.07;1.30;;;;;;;6.76;85.97;99735.30;5154547;57;1134923;-78
2021/10/22 03:12:38;;;;;;;9.53;1.43;;;;;;;6.77;86.14;99732.56;5164689;57;1136996;-76
2021/10/22 03:17:45;;;;;;;8.00;1.27;;;;;;;6.75;86.17;99741.50;5164678;57;1135006;-77
2021/10/22 03:22:51;;;;;;;5.03;1.47;;;;;;;6.74;86.30;99738.03;5164622;57;1134892;-76
2021/10/22 03:28:04;;;;;;;9.63;1.30;;;;;;;6.73;86.46;99743.41;5164624;57;1135257;-77
2021/10/22 03:33:05;;;;;;;4.07;1.13;;;;;;;6.70;86.83;99761.09;5157700;57;1134836;-77
2021/10/22 03:38:11;;;;;;;3.80;1.00;;;;;;;6.68;87.11;99764.78;5144244;57;1134815;-77
2021/10/22 03:43:17;;;;;;;9.50;2.20;;;;;;;6.68;87.25;99765.63;5139348;57;1132846;-77
2021/10/22 03:48:22;;;;;;;16.13;2.77;;;;;;;6.69;87.32;99770.41;5139357;57;1132768;-78
2021/10/22 03:53:29;;;;;;;4.93;1.10;;;;;;;6.68;87.37;99778.77;5143929;57;1135191;-77
2021/10/22 03:58:35;;;;;;;10.05;1.98;;;;;;;6.72;87.25;99796.94;5147896;57;1133090;-77
2021/10/22 04:03:40;;;;;;;6.97;1.07;;;;;;;6.74;87.12;99787.97;5147995;57;1135051;-78
2021/10/22 04:08:46;;;;;;;9.27;1.90;;;;;;;6.75;87.10;99783.55;5148084;57;1132883;-77
2021/10/22 04:13:52;;;;;;;5.43;1.07;;;;;;;6.75;87.05;99795.37;5147766;57;1132813;-76
2021/10/22 04:18:57;;;;;;;10.72;2.08;;;;;;;6.73;86.99;99786.28;5148041;57;1132829;-77
2021/10/22 04:24:04;;;;;;;8.38;1.50;;;;;;;6.68;86.66;99780.08;5147811;57;1135025;-77
2021/10/22 04:29:09;;;;;;;12.93;2.10;;;;;;;6.67;86.63;99800.73;5147874;57;1133210;-77
2021/10/22 04:34:16;;;;;;;4.73;1.50;;;;;;;6.62;86.54;99792.33;5142516;57;1135284;-77
2021/10/22 04:44:45;;;;;;;5.57;1.20;;;;;;;6.57;86.74;99797.58;5138209;57;1132768;-78
2021/10/22 04:49:51;;;;;;;12.13;1.80;;;;;;;6.55;86.88;99808.67;5138692;57;1132736;-77
2021/10/22 04:54:57;;;;;;;10.00;2.77;;;;;;;6.52;87.10;99808.88;5069842;57;1134992;-78
2021/10/22 05:00:07;;;;;;;7.87;1.40;;;;;;;6.50;86.93;99816.03;5058423;57;1132131;-78
2021/10/22 05:05:13;;;;;;;5.37;1.45;;;;;;;6.46;87.00;99816.72;5064377;57;1132464;-78
2021/10/22 05:10:19;;;;;;;5.63;2.47;;;;;;;6.43;87.53;99810.37;5141704;56;1134815;-77
2021/10/22 05:15:25;;;;;;;8.13;2.17;;;;;;;6.43;87.53;99810.37;5084901;57;1134894;-77
2021/10/22 05:20:31;;;;;;;9.20;1.63;;;;;;;6.39;87.71;99817.28;5111089;56;1132842;-78
2021/10/22 05:25:37;;;;;;;7.83;2.03;;;;;;;6.37;87.86;99812.14;5150478;56;1134895;-77
2021/10/22 05:30:44;;;;;;;10.53;3.43;;;;;;;6.35;87.87;99817.97;5076080;57;1132785;-77
2021/10/22 05:35:50;;;;;;;8.63;1.43;;;;;;;6.32;88.12;99826.06;5164054;56;1134895;-77
2021/10/22 05:40:56;;;;;;;12.57;2.23;;;;;;;6.31;88.13;99828.32;5164103;57;1134907;-78
2021/10/22 05:46:02;;;;;;;11.70;1.70;;;;;;;6.30;88.12;99836.67;5163919;57;1137044;-79
2021/10/22 05:51:07;;;;;;;9.83;2.00;;;;;;;6.28;88.33;99839.88;5149242;56;1134861;-78
2021/10/22 05:56:13;;;;;;;12.07;2.00;;;;;;;6.31;88.33;99851.95;5153320;57;1134954;-77
2021/10/22 06:01:19;;;;;;;5.43;2.23;;;;;;;6.29;88.51;99850.75;5115674;57;1136924;-77
2021/10/22 06:06:25;;;;;;;10.37;4.33;;;;;;;6.30;88.52;99844.55;5132014;57;1134800;-79
2021/10/22 06:11:31;;;;;;;11.53;3.63;;;;;;;6.28;88.51;99846.44;5144730;56;1136881;-78
2021/10/22 06:16:36;;;;;;;12.63;2.37;;;;;;;6.27;88.64;99862.30;5148955;56;1136948;-76
2021/10/22 06:26:49;;;;;;;11.20;1.83;;;;;;;6.28;88.71;99877.95;5149498;57;1137133;-79
2021/10/22 06:31:54;;;;;;;6.27;2.57;;;;;;;6.32;88.63;99865.45;5157175;57;1137170;-77
2021/10/22 06:37:00;;;;;;;5.97;1.97;;;;;;;6.38;89.05;99882.58;5148283;57;1135171;-76
2021/10/22 06:42:06;;;;;;;5.37;1.87;;;;;;;6.48;88.70;99879.66;5202121;56;1134875;-77
2021/10/22 06:47:12;;;;;;;12.70;2.53;;;;;;;6.59;88.22;99871.37;5226673;56;1134914;-78
2021/10/22 06:52:17;;;;;;;13.60;2.30;;;;;;;6.64;88.01;99875.83;5219690;56;1137309;-77
2021/10/22 07:02:36;;;;;;;11.60;2.77;;;;;;;6.65;88.21;99893.75;5230148;55;46145;-75
2021/10/22 07:07:40;;;;;;;8.33;2.40;;;;;;;6.60;87.76;99898.48;4971846;58;1132827;-74
2021/10/22 07:12:47;;;;;;;14.73;1.63;;;;;;;6.61;87.85;99906.73;5029597;58;1135105;-75
2021/10/22 07:17:55;;;;;;;18.83;2.40;;;;;;;6.59;87.58;99895.02;5060772;58;1134832;-74
2021/10/22 07:23:06;;;;;;;10.33;2.60;;;;;;;6.62;87.55;99901.37;5060525;58;1137039;-75
2021/10/22 07:28:15;;;;;;;11.03;2.10;;;;;;;6.67;87.43;99911.09;5047718;58;1134903;-76
2021/10/22 07:33:21;;;;;;;11.53;2.30;;;;;;;6.74;87.60;99921.98;5014094;58;1137144;-76
2021/10/22 07:43:25;;;;;;;5.43;1.30;;;;;;;6.88;87.09;99907.86;5250491;55;46348;-75
2021/10/22 07:48:31;;;;;;;5.57;1.73;;;;;;;6.88;86.80;99906.06;5080684;57;1130680;-75
2021/10/22 07:53:41;;;;;;;7.07;2.30;;;;;;;6.92;85.93;99900.13;5096090;56;1134776;-75
2021/10/22 07:58:50;;;;;;;21.17;2.50;;;;;;;6.94;85.93;99911.38;5078266;57;1135053;-76
2021/10/22 08:03:54;;;;;;;4.37;1.60;;;;;;;6.98;85.89;99910.20;4996375;58;1136342;-76
2021/10/22 08:09:00;;;;;;;12.70;2.83;;;;;;;7.05;84.96;99925.41;4966316;58;1134880;-75
2021/10/22 08:14:06;;;;;;;13.80;2.10;;;;;;;7.20;85.18;99915.56;5033578;56;1136935;-76
2021/10/22 08:19:12;;;;;;;17.23;2.53;;;;;;;7.41;84.98;99912.68;5056115;56;1135129;-76
2021/10/22 08:24:18;;;;;;;9.87;3.10;;;;;;;7.51;84.29;99927.77;5066663;57;1134870;-77
2021/10/22 08:29:27;;;;;;;9.57;2.30;;;;;;;7.66;84.55;99909.52;5177861;56;1132743;-76
2021/10/22 08:34:32;;;;;;;10.77;2.07;;;;;;;7.84;83.08;99921.77;5195666;57;1133088;-74
2021/10/22 08:39:44;;;;;;;13.20;2.17;;;;;;;7.97;82.53;99911.98;5193631;56;1135295;-75
2021/10/22 08:44:46;;;;;;;6.50;1.13;;;;;;;8.05;82.12;99901.24;5216970;56;1134881;-74
2021/10/22 08:49:52;;;;;;;3.97;2.10;;;;;;;8.02;81.78;99900.16;5218406;56;1132828;-74
2021/10/22 08:55:04;;;;;;;9.47;2.57;;;;;;;7.95;81.66;99898.94;5144664;56;1132740;-74
2021/10/22 09:00:13;;;;;;;8.53;2.07;;;;;;;7.95;82.07;99903.36;5130278;57;1132756;-76
2021/10/22 09:05:23;;;;;;;9.00;1.97;;;;;;;7.97;82.32;99900.97;5130507;57;1132926;-75
2021/10/22 09:10:38;;;;;;;6.17;2.50;;;;;;;8.00;81.59;99900.75;5132079;56;1132262;-74
2021/10/22 09:15:42;;;;;;;9.97;1.83;;;;;;;8.06;81.97;99903.40;5144545;57;1132795;-76
2021/10/22 09:21:00;;;;;;;11.07;1.90;;;;;;;8.13;81.61;99894.89;5143779;57;1132765;-76
2021/10/22 09:26:29;;;;;;;12.13;2.90;;;;;;;8.21;81.37;99894.79;5088923;58;1137302;-76
2021/10/22 09:31:28;;;;;;;;;;;;;;;8.25;80.66;99893.60;5132196;57;1136881;-77
2021/10/22 09:36:41;;;;;;;5.37;1.30;;;;;;;8.24;79.90;99894.55;5127302;56;972295;-75
2021/10/22 09:41:56;;;;;;;6.10;1.27;;;;;;;8.22;79.44;99895.16;5180798;56;1132926;-75
2021/10/22 09:47:14;;;;;;;6.10;1.33;;;;;;;8.26;80.35;99900.52;5174098;56;1134825;-75
2021/10/22 09:52:27;;;;;;;6.80;1.70;;;;;;;8.33;79.61;99897.81;5130922;57;1134888;-76
2021/10/22 09:57:34;;;;;;;14.57;2.30;;;;;;;8.46;79.86;99895.88;5109463;57;1134169;-74
2021/10/22 10:02:43;;;;;;;8.55;2.12;;;;;;;8.52;79.82;99887.51;5101826;57;1136906;-77
2021/10/22 10:07:48;;;;;;;13.60;2.27;;;;;;;8.54;78.37;99869.78;5132007;57;1134998;-74
2021/10/22 10:12:54;;;;;;;8.20;1.47;;;;;;;8.51;77.97;99862.59;5165273;57;1136938;-76
2021/10/22 10:18:02;;;;;;;5.67;1.77;;;;;;;8.52;78.46;99869.06;5074056;57;1134929;-76
2021/10/22 10:23:29;;;;;;;7.80;1.90;;;;;;;8.52;77.18;99842.70;5052233;57;1134229;-75
2021/10/22 10:28:42;;;;;;;11.53;2.60;;;;;;;8.53;78.05;99855.41;5088271;57;1134873;-77
2021/10/22 10:33:47;;;;;;;11.57;2.30;;;;;;;8.52;77.57;99841.39;5119214;57;1136944;-76
2021/10/22 10:38:53;;;;;;;11.13;1.97;;;;;;;8.51;77.41;99854.69;5147315;57;1135044;-74
2021/10/22 10:44:29;;;;;;;14.57;4.23;;;;;;;8.52;77.17;99840.07;5138498;56;1136962;-76
2021/10/22 10:49:52;;;;;;;10.00;1.27;;;;;;;8.52;77.24;99832.64;5140720;56;1137250;-75
2021/10/22 10:55:28;;;;;;;6.77;2.13;;;;;;;8.55;76.11;99835.88;5135300;57;1134899;-76
2021/10/22 11:00:41;;;;;;;11.03;2.00;;;;;;;8.53;75.40;99829.05;5118095;56;1132775;-73
2021/10/22 11:05:57;;;;;;;9.97;2.90;;;;;;;8.51;75.61;99848.94;4950986;57;1132872;-73
2021/10/22 11:11:09;;;;;;;11.03;2.80;;;;;;;8.55;75.52;99829.29;4970468;59;1132725;-78
2021/10/22 11:16:28;;;;;;;12.27;2.83;;;;;;;8.56;75.89;99826.14;4971355;58;1134892;-74
2021/10/22 11:21:38;;;;;;;16.30;2.10;;;;;;;8.54;76.80;99814.44;4923024;59;1136932;-77
2021/10/22 11:26:44;;;;;;;7.75;1.67;;;;;;;8.52;77.18;99827.38;4927756;59;1137267;-73
2021/10/22 11:31:54;;;;;;;11.33;3.30;;;;;;;8.43;77.59;99823.17;4926140;59;1134677;-74
2021/10/22 11:37:11;;;;;;;8.68;2.20;;;;;;;8.39;77.24;99815.66;4879131;59;1137117;-76
2021/10/22 11:42:28;;;;;;;13.50;2.87;;;;;;;8.38;78.09;99798.17;4890437;58;1134859;-72
2021/10/22 11:47:50;;;;;;;13.13;2.50;;;;;;;8.41;77.56;99796.59;4953640;59;1137011;-73
2021/10/22 11:53:12;;;;;;;24.40;7.27;;;;;;;8.44;77.25;99785.33;4925261;59;1134801;-75
2021/10/22 11:58:25;;;;;;;14.80;2.50;;;;;;;8.55;76.19;99788.92;4991960;59;1136958;-75
2021/10/22 12:03:45;;;;;;;7.23;2.00;;;;;;;8.60;75.93;99802.06;4995508;59;1137577;-74
2021/10/22 12:08:52;;;;;;;6.47;1.97;;;;;;;8.59;74.45;99774.03;5002620;58;1133380;-77
2021/10/22 12:13:58;;;;;;;8.73;1.90;;;;;;;8.61;75.09;99780.02;5060112;57;1132840;-76
2021/10/22 12:19:04;;;;;;;13.30;2.30;;;;;;;8.69;74.08;99770.18;4968402;58;1134950;-75
2021/10/22 12:24:15;;;;;;;5.30;1.67;;;;;;;8.76;73.87;99768.22;4974128;59;1137130;-73
2021/10/22 12:29:20;;;;;;;6.40;2.30;;;;;;;8.80;73.83;99756.47;4974490;59;1132799;-75
2021/10/22 12:34:32;;;;;;;26.20;1.83;;;;;;;8.83;72.61;99758.50;4974709;59;1133228;-74
2021/10/22 12:39:49;;;;;;;7.10;1.87;;;;;;;8.85;72.27;99749.98;4974634;59;1134890;-76
2021/10/22 12:45:20;;;;;;;12.57;3.97;;;;;;;8.87;72.60;99750.67;4974535;59;1132790;-76
2021/10/22 12:50:30;;;;;;;11.40;3.00;;;;;;;8.85;74.33;99746.88;4974846;58;1132916;-76
2021/10/22 12:55:36;;;;;;;17.20;3.53;;;;;;;8.83;75.34;99744.00;5033410;58;1134861;-76
2021/10/22 13:00:43;;;;;;;11.97;5.27;;;;;;;8.80;74.57;99723.99;5177941;56;1134888;-76
2021/10/22 13:05:49;;;;;;;7.53;2.13;;;;;;;8.81;73.50;99724.34;5155407;56;1132810;-77
2021/10/22 13:11:18;;;;;;;10.60;3.03;;;;;;;8.86;73.42;99710.80;5238417;56;1130915;-76
2021/10/22 13:21:39;;;;;;;6.83;1.97;;;;;;;8.90;75.08;99719.61;5236626;56;1132864;-77
2021/10/22 13:26:45;;;;;;;15.57;5.20;;;;;;;8.94;73.37;99713.61;5048703;58;1130838;-78
2021/10/22 13:31:52;;;;;;;10.73;3.20;;;;;;;8.96;73.57;99711.20;5209807;56;1130769;-78
2021/10/22 13:36:58;;;;;;;10.87;2.90;;;;;;;8.96;73.79;99701.14;5233101;56;1137249;-79
2021/10/22 13:42:04;;;;;;;13.07;4.60;;;;;;;8.98;74.48;99711.08;5150373;57;1136855;-78
2021/10/22 13:47:10;;;;;;;11.60;2.37;;;;;;;9.01;74.42;99702.41;5140742;56;1137041;-78
2021/10/22 13:52:15;;;;;;;12.70;2.93;;;;;;;9.02;75.04;99699.28;5178241;56;1136939;-79
2021/10/22 13:57:23;;;;;;;5.40;1.70;;;;;;;9.03;75.00;99699.64;5202769;56;1136881;-78
2021/10/22 14:02:28;;;;;;;29.10;19.67;;;;;;;8.98;75.66;99711.08;5211377;56;1134783;-78
2021/10/22 14:07:34;;;;;;;165.03;50.70;;;;;;;8.96;76.55;99680.04;5137598;57;1138918;-79
2021/10/22 14:12:46;;;;;;;44.17;7.73;;;;;;;8.92;76.14;99685.20;5128343;57;1141041;-80
2021/10/22 14:18:13;;;;;;;28.00;5.50;;;;;;;8.92;77.12;99701.03;5157834;56;1137205;-78
2021/10/22 14:23:37;;;;;;;27.32;4.92;;;;;;;8.86;78.38;99687.86;5149083;56;1136945;-78
2021/10/22 14:33:45;;;;;;;47.78;12.45;;;;;;;8.68;80.25;99676.24;5146186;56;1136932;-79
2021/10/22 14:38:52;;;;;;;18.93;4.10;;;;;;;8.59;80.74;99677.83;5098073;57;1139005;-79
2021/10/22 14:44:04;;;;;;;7.60;2.20;;;;;;;8.56;81.61;99682.50;5131652;57;1136854;-79
2021/10/22 14:49:18;;;;;;;15.00;3.27;;;;;;;8.50;83.03;99677.76;5098630;57;1134884;-80
2021/10/22 14:54:26;;;;;;;12.87;2.47;;;;;;;8.39;83.84;99682.13;5134509;56;1136876;-79
2021/10/22 14:59:27;;;;;;;10.17;3.57;;;;;;;8.29;84.80;99662.70;5140950;56;1136951;-79
2021/10/22 15:04:33;;;;;;;15.90;2.80;;;;;;;8.20;86.07;99685.02;5134226;56;1137115;-79
2021/10/22 15:09:39;;;;;;;10.00;2.07;;;;;;;8.12;86.72;99685.14;5190348;56;1137046;-79
2021/10/22 15:14:45;;;;;;;10.37;2.93;;;;;;;8.08;86.70;99691.64;5214098;56;1136968;-78
2021/10/22 15:19:50;;;;;;;21.63;7.43;;;;;;;8.03;87.64;99694.28;5203507;56;1136875;-79
2021/10/22 15:24:56;;;;;;;42.03;14.80;;;;;;;7.97;88.48;99688.17;5220650;56;1136958;-79
2021/10/22 15:30:03;;;;;;;36.30;12.07;;;;;;;7.93;88.81;99695.50;5259778;56;1139072;-79
2021/10/22 15:35:10;;;;;;;14.67;5.67;;;;;;;7.93;88.75;99691.55;5235036;56;1139048;-78
2021/10/22 15:40:16;;;;;;;23.00;9.40;;;;;;;7.92;89.34;99694.30;5215585;56;1136934;-79
2021/10/22 15:45:22;;;;;;;12.63;5.80;;;;;;;7.90;89.27;99693.59;5229302;56;1137068;-79
2021/10/22 15:50:28;;;;;;;14.53;3.60;;;;;;;7.86;90.09;99699.56;5237783;55;1136943;-79
2021/10/22 15:55:34;;;;;;;16.57;2.63;;;;;;;7.85;90.43;99701.00;5235615;55;1136992;-80
2021/10/22 16:00:41;;;;;;;7.73;2.30;;;;;;;7.86;90.30;99716.68;5235504;55;1136906;-81
2021/10/22 16:05:55;;;;;;;6.57;2.00;;;;;;;7.85;90.63;99720.27;5242662;55;1132807;-80
2021/10/22 16:11:02;;;;;;;9.67;3.20;;;;;;;7.80;91.70;99744.79;5249116;55;1132789;-79
2021/10/22 16:16:31;;;;;;;7.97;2.47;;;;;;;7.74;92.47;99740.02;5245266;55;1132888;-79
2021/10/22 16:21:28;;;;;;;27.10;9.05;;;;;;;7.66;93.56;99765.61;5264367;55;1132846;-80
2021/10/22 16:26:34;;;;;;;16.67;5.50;;;;;;;7.61;94.50;99761.20;5233858;55;1134903;-80
2021/10/22 16:31:40;;;;;;;14.57;4.50;;;;;;;7.58;95.06;99761.44;5236503;55;1134835;-80
2021/10/22 16:36:45;;;;;;;21.37;5.73;;;;;;;7.58;95.11;99762.75;5260824;55;1134815;-78
2021/10/22 16:41:53;;;;;;;18.37;4.70;;;;;;;7.54;95.42;99750.78;5236184;55;1134880;-79
2021/10/22 16:47:00;;;;;;;4.80;2.57;;;;;;;7.46;96.92;99779.48;5237204;55;1134973;-78
2021/10/22 16:52:06;;;;;;;36.73;13.13;;;;;;;7.37;97.79;99784.11;5291191;55;1133135;-78
2021/10/22 16:57:14;;;;;;;11.47;3.70;;;;;;;7.33;98.44;99784.01;5277638;55;1136974;-79
2021/10/22 17:02:20;;;;;;;27.03;8.67;;;;;;;7.32;97.69;99803.37;5292780;55;1134817;-78
2021/10/22 17:07:25;;;;;;;24.73;5.43;;;;;;;7.30;98.42;99797.39;5271616;55;1134935;-79
2021/10/22 17:12:36;;;;;;;26.53;6.87;;;;;;;7.31;98.40;99800.38;5142838;57;1132796;-78
2021/10/22 17:17:43;;;;;;;10.67;3.30;;;;;;;7.30;98.60;99821.90;5142847;57;1136948;-79
2021/10/22 17:22:48;;;;;;;20.17;6.37;;;;;;;7.29;98.04;99818.91;5025634;57;1136958;-75
2021/10/22 17:27:57;;;;;;;26.20;7.53;;;;;;;7.25;97.60;99810.03;5216523;56;1144608;-74
2021/10/22 17:33:04;;;;;;;3.07;1.67;;;;;;;7.26;97.08;99827.02;5241787;56;1136964;-74
2021/10/22 17:38:09;;;;;;;10.80;4.80;;;;;;;7.23;96.97;99839.08;5241322;56;1134843;-74
2021/10/22 17:43:16;;;;;;;11.57;4.70;;;;;;;7.23;96.53;99845.66;5195535;56;1136934;-73
2021/10/22 17:48:22;;;;;;;16.13;5.43;;;;;;;7.25;96.08;99850.80;5200535;56;1137142;-74
2021/10/22 17:53:29;;;;;;;18.73;5.47;;;;;;;7.27;95.76;99867.31;5183872;56;1137182;-75
2021/10/22 17:58:36;;;;;;;7.70;3.13;;;;;;;7.26;95.04;99876.15;5197679;56;1136783;-73
2021/10/22 18:03:42;;;;;;;12.80;4.33;;;;;;;7.22;94.74;99883.89;5167329;56;1134885;-75
2021/10/22 18:08:48;;;;;;;8.33;3.40;;;;;;;7.18;94.58;99885.91;5137858;55;1136927;-75
2021/10/22 18:13:53;;;;;;;5.27;2.57;;;;;;;7.15;94.66;99883.52;5218125;55;1135124;-76
2021/10/22 18:19:00;;;;;;;5.00;2.67;;;;;;;7.14;94.77;99897.62;5241171;55;1134805;-77
2021/10/22 18:24:07;;;;;;;3.73;1.90;;;;;;;7.15;95.08;99919.50;5231248;55;1134852;-74
2021/10/22 18:29:36;;;;;;;4.07;1.73;;;;;;;7.16;95.29;99929.07;5239636;55;1135072;-76
2021/10/22 18:34:33;;;;;;;3.33;1.33;;;;;;;7.18;95.69;99945.08;5236969;55;1134947;-73
2021/10/22 18:39:39;;;;;;;4.37;1.83;;;;;;;7.21;95.19;99937.44;5230730;55;1134792;-75
2021/10/22 18:44:45;;;;;;;11.33;5.57;;;;;;;7.24;95.57;99953.01;5228734;55;1134966;-74
2021/10/22 18:50:02;;;;;;;2.90;1.60;;;;;;;7.23;95.49;99953.48;5258168;55;1136875;-76
2021/10/22 18:55:04;;;;;;;2.80;1.60;;;;;;;7.24;95.18;99956.48;5287507;55;1135055;-75
2021/10/22 19:00:12;;;;;;;5.23;2.23;;;;;;;7.18;94.68;99963.48;5293446;55;1134874;-77
2021/10/22 19:05:27;;;;;;;4.40;1.65;;;;;;;7.12;94.02;99972.31;5094894;57;1134831;-73
2021/10/22 19:10:33;;;;;;;5.63;1.37;;;;;;;7.08;93.76;99980.05;5286721;55;1134899;-73
2021/10/22 19:15:43;;;;;;;2.10;1.47;;;;;;;7.03;93.93;99997.45;5080364;57;1134920;-75
2021/10/22 19:20:49;;;;;;;4.60;2.23;;;;;;;6.97;93.78;100007.95;5187114;56;1134836;-76
2021/10/22 19:25:57;;;;;;;1.33;1.23;;;;;;;6.94;93.74;100027.04;5197375;56;1137390;-74
2021/10/22 19:31:05;;;;;;;0.97;0.93;;;;;;;6.89;93.91;100026.52;5162353;56;1136806;-75
2021/10/22 19:36:10;;;;;;;5.90;2.50;;;;;;;6.84;93.88;100025.54;5267563;55;1137031;-74
2021/10/22 19:41:17;;;;;;;3.97;1.17;;;;;;;6.79;93.68;100021.54;5258844;55;1137085;-76
2021/10/22 19:46:22;;;;;;;2.83;0.90;;;;;;;6.77;93.79;100033.95;5099273;57;1137107;-77
2021/10/22 19:51:28;;;;;;;3.20;1.13;;;;;;;6.73;93.79;100034.63;5273927;55;1137231;-73
2021/10/22 19:56:34;;;;;;;4.27;1.10;;;;;;;6.73;93.52;100048.23;5297735;55;1134936;-74
2021/10/22 20:01:41;;;;;;;6.90;2.03;;;;;;;6.73;93.82;100057.44;5100302;57;1135195;-75
2021/10/22 20:06:47;;;;;;;3.37;1.63;;;;;;;6.72;93.45;100055.78;5257008;55;1134749;-77
2021/10/22 20:11:53;;;;;;;3.23;0.90;;;;;;;6.71;93.14;100070.70;5245912;55;1134849;-74
2021/10/22 20:16:59;;;;;;;1.43;1.27;;;;;;;6.68;93.09;100078.80;5225409;56;1134828;-76
2021/10/22 20:22:06;;;;;;;9.30;2.47;;;;;;;6.63;92.92;100077.78;5235800;56;1134818;-76
2021/10/22 20:27:12;;;;;;;2.43;1.17;;;;;;;6.61;92.66;100095.91;5236272;56;1134900;-74
2021/10/22 20:32:19;;;;;;;1.98;1.45;;;;;;;6.60;92.70;100112.14;5239993;56;1135240;-74
2021/10/22 20:37:25;;;;;;;8.07;2.30;;;;;;;6.63;92.62;100130.34;5240122;56;1134771;-74
2021/10/22 20:42:30;;;;;;;4.60;1.67;;;;;;;6.69;92.14;100133.03;5239370;56;1132774;-72
2021/10/22 20:47:37;;;;;;;3.63;1.00;;;;;;;6.73;92.25;100150.25;5239817;56;1134885;-74
2021/10/22 20:58:07;;;;;;;3.30;0.93;;;;;;;6.81;92.00;100177.35;5194463;56;1134939;-75
2021/10/22 21:03:13;;;;;;;2.27;0.90;;;;;;;6.84;92.23;100190.30;5154840;57;1134877;-73
2021/10/22 21:08:25;;;;;;;2.75;1.40;;;;;;;6.83;92.45;100185.51;5150232;57;1133072;-75
2021/10/22 21:13:31;;;;;;;1.97;1.20;;;;;;;6.78;91.93;100183.66;4974272;59;1136822;-75
2021/10/22 21:18:37;;;;;;;6.63;2.63;;;;;;;6.77;91.51;100204.78;5183004;56;1136857;-74
2021/10/22 21:23:44;;;;;;;3.33;1.43;;;;;;;6.77;91.51;100204.78;5171344;56;1136981;-74
2021/10/22 21:28:51;;;;;;;5.00;2.70;;;;;;;6.73;91.42;100208.55;5167419;56;1137136;-75
2021/10/22 21:33:57;;;;;;;6.53;1.27;;;;;;;6.67;91.64;100219.86;5222050;56;1136950;-73
2021/10/22 21:39:03;;;;;;;8.77;2.97;;;;;;;6.62;92.10;100208.80;5230394;56;1134969;-73
2021/10/22 21:44:09;;;;;;;4.47;1.60;;;;;;;6.58;92.20;100227.02;5149703;57;1134776;-75
2021/10/22 21:49:15;;;;;;;4.83;1.63;;;;;;;6.56;92.20;100243.84;5149156;56;1136949;-72
2021/10/22 21:54:21;;;;;;;4.13;1.63;;;;;;;6.54;92.39;100248.36;5286226;55;1136971;-73
2021/10/22 21:59:27;;;;;;;5.00;1.40;;;;;;;6.54;92.44;100258.39;5096252;57;1137009;-74
2021/10/22 22:04:35;;;;;;;3.60;1.47;;;;;;;6.52;92.51;100258.11;5310603;55;1136983;-75
2021/10/22 22:09:41;;;;;;;2.87;0.70;;;;;;;6.48;92.56;100282.42;5156409;56;1136961;-73
2021/10/22 22:14:48;;;;;;;4.80;1.40;;;;;;;6.46;92.61;100282.14;5153678;57;1134832;-76
2021/10/22 22:19:53;;;;;;;17.77;4.77;;;;;;;6.44;92.56;100274.36;5153535;57;1136999;-74
2021/10/22 22:24:59;;;;;;;6.43;2.30;;;;;;;6.42;92.59;100284.12;5165070;56;1139038;-73
2021/10/22 22:30:10;;;;;;;5.90;1.47;;;;;;;6.37;92.64;100304.60;5154082;57;1136966;-75
2021/10/22 22:35:17;;;;;;;5.50;1.27;;;;;;;6.32;92.62;100306.20;5153994;57;1136975;-76
2021/10/22 22:40:23;;;;;;;6.00;1.73;;;;;;;6.28;92.90;100313.89;5167599;56;1137098;-75
2021/10/22 22:45:29;;;;;;;5.03;1.83;;;;;;;6.25;92.96;100309.33;5171609;56;1137145;-73
2021/10/22 22:50:35;;;;;;;3.30;1.50;;;;;;;6.21;92.94;100320.48;5275211;55;1136919;-75
2021/10/22 22:55:41;;;;;;;1.50;0.90;;;;;;;6.20;93.09;100332.39;5210530;56;1136978;-73
2021/10/22 23:00:47;;;;;;;5.60;1.20;;;;;;;6.16;93.28;100336.14;5210967;56;1135301;-74
2021/10/22 23:05:52;;;;;;;5.00;1.20;;;;;;;6.09;93.75;100349.30;5219055;56;1134843;-72
2021/10/22 23:10:58;;;;;;;3.47;1.00;;;;;;;6.09;93.46;100369.83;5210980;56;1135099;-74
2021/10/22 23:16:04;;;;;;;3.27;0.75;;;;;;;6.09;93.43;100381.64;5210776;56;1137380;-72
2021/10/22 23:21:10;;;;;;;2.70;0.97;;;;;;;6.08;93.61;100386.52;5211266;56;1136882;-76
2021/10/22 23:26:17;;;;;;;4.57;0.63;;;;;;;6.02;93.86;100391.28;5206417;56;1135087;-75
2021/10/22 23:31:23;;;;;;;3.07;1.37;;;;;;;5.97;93.87;100404.67;5198825;56;1134894;-76
2021/10/22 23:36:28;;;;;;;3.13;1.00;;;;;;;5.89;93.77;100409.09;5198953;56;1134890;-74
2021/10/22 23:41:35;;;;;;;3.40;0.80;;;;;;;5.83;93.99;100402.85;5199154;56;1134821;-74
2021/10/22 23:46:41;;;;;;;5.87;0.87;;;;;;;5.75;94.17;100414.29;5200286;56;1135087;-75
2021/10/22 23:51:47;;;;;;;6.43;0.97;;;;;;;5.68;94.13;100432.63;5226962;56;1134888;-74
2021/10/22 23:56:53;;;;;;;7.03;1.93;;;;;;;5.60;94.56;100437.03;5287625;55;1135066;-75
